createdAt,value
2018-04-13T00:01:29.581Z,20.09
2018-04-13T00:03:57.110Z,20.01
2018-04-13T00:06:24.636Z,20.05
2018-04-13T00:08:52.208Z,20.08
2018-04-13T00:11:19.790Z,20.11
2018-04-13T00:13:47.371Z,20.00
2018-04-13T00:16:14.948Z,20.02
2018-04-13T00:18:42.537Z,19.90
2018-04-13T00:21:10.119Z,19.93
2018-04-13T00:23:37.666Z,19.97
2018-04-13T00:26:05.364Z,20.01
2018-04-13T00:28:32.896Z,19.98
2018-04-13T00:31:00.438Z,19.95
2018-04-13T00:33:28.032Z,19.87
2018-04-13T00:35:55.562Z,19.66
2018-04-13T00:38:24.033Z,19.71
2018-04-13T00:40:51.626Z,19.75
2018-04-13T00:43:19.200Z,19.80
2018-04-13T00:45:46.828Z,19.70
2018-04-13T00:48:14.363Z,19.75
2018-04-13T00:50:41.954Z,19.79
2018-04-13T00:53:21.324Z,19.81
2018-04-13T00:55:48.925Z,19.81
2018-04-13T00:58:17.482Z,19.82
2018-04-13T01:00:45.022Z,19.84
2018-04-13T01:03:12.854Z,19.80
2018-04-13T01:05:40.828Z,19.82
2018-04-13T01:08:08.406Z,19.80
2018-04-13T01:10:36.492Z,19.82
2018-04-13T01:13:05.010Z,19.86
2018-04-13T01:15:32.620Z,19.86
2018-04-13T01:18:00.416Z,19.87
2018-04-13T01:20:27.953Z,19.88
2018-04-13T01:22:55.489Z,19.89
2018-04-13T01:25:23.091Z,19.89
2018-04-13T01:27:51.050Z,19.87
2018-04-13T01:30:18.577Z,19.86
2018-04-13T01:32:46.104Z,19.86
2018-04-13T01:35:13.680Z,19.85
2018-04-13T01:37:41.252Z,19.84
2018-04-13T01:40:09.225Z,19.84
2018-04-13T01:42:37.120Z,19.83
2018-04-13T01:45:04.882Z,19.82
2018-04-13T01:47:32.436Z,19.80
2018-04-13T01:50:00.288Z,19.77
2018-04-13T01:52:27.895Z,19.78
2018-04-13T01:54:55.501Z,19.77
2018-04-13T01:57:23.046Z,19.75
2018-04-13T01:59:50.865Z,19.74
2018-04-13T02:02:18.426Z,19.72
2018-04-13T02:04:45.969Z,19.71
2018-04-13T02:07:13.641Z,19.68
2018-04-13T02:09:41.173Z,19.66
2018-04-13T02:12:08.768Z,19.64
2018-04-13T02:14:36.826Z,19.64
2018-04-13T02:17:04.590Z,19.58
2018-04-13T02:19:32.129Z,19.48
2018-04-13T02:21:59.709Z,19.05
2018-04-13T02:24:29.236Z,19.07
2018-04-13T02:26:57.052Z,18.72
2018-04-13T02:29:24.602Z,18.61
2018-04-13T02:31:52.185Z,18.66
2018-04-13T02:34:19.973Z,18.72
2018-04-13T02:36:47.445Z,18.83
2018-04-13T02:39:15.457Z,18.83
2018-04-13T02:41:42.996Z,18.70
2018-04-13T02:44:10.545Z,18.70
2018-04-13T02:46:38.138Z,18.73
2018-04-13T02:49:06.722Z,18.62
2018-04-13T02:51:35.412Z,18.57
2018-04-13T02:54:02.960Z,18.58
2018-04-13T02:56:30.556Z,18.57
2018-04-13T02:58:58.657Z,18.47
2018-04-13T03:01:26.188Z,18.39
2018-04-13T03:03:53.771Z,18.22
2018-04-13T03:06:21.314Z,18.05
2018-04-13T03:08:48.912Z,17.69
2018-04-13T03:11:16.453Z,17.70
2018-04-13T03:13:44.061Z,17.78
2018-04-13T03:16:11.637Z,17.70
2018-04-13T03:18:39.178Z,17.56
2018-04-13T03:21:06.763Z,17.22
2018-04-13T03:23:34.345Z,17.38
2018-04-13T03:26:01.878Z,17.27
2018-04-13T03:28:29.420Z,17.07
2018-04-13T03:30:56.965Z,17.07
2018-04-13T03:33:24.670Z,17.20
2018-04-13T03:35:52.270Z,17.30
2018-04-13T03:38:19.849Z,17.41
2018-04-13T03:40:47.388Z,17.53
2018-04-13T03:43:15.128Z,17.39
2018-04-13T03:45:42.935Z,17.45
2018-04-13T03:48:11.625Z,17.41
2018-04-13T03:50:39.390Z,17.46
2018-04-13T03:53:06.933Z,17.54
2018-04-13T03:55:34.825Z,17.55
2018-04-13T03:58:02.813Z,17.57
2018-04-13T04:00:30.413Z,17.69
2018-04-13T04:02:57.955Z,17.63
2018-04-13T04:05:25.537Z,17.70
2018-04-13T04:07:53.398Z,17.72
2018-04-13T04:10:21.642Z,17.04
2018-04-13T04:12:49.176Z,17.11
2018-04-13T04:15:16.750Z,17.26
2018-04-13T04:17:44.294Z,17.28
2018-04-13T04:20:24.853Z,16.95
2018-04-13T04:23:04.720Z,16.89
2018-04-13T04:25:51.508Z,17.01
2018-04-13T04:28:19.419Z,17.27
2018-04-13T04:30:47.917Z,17.19
2018-04-13T04:33:15.470Z,16.60
2018-04-13T04:35:43.633Z,16.93
2018-04-13T04:38:11.394Z,17.36
2018-04-13T04:40:38.932Z,17.35
2018-04-13T04:43:06.669Z,17.38
2018-04-13T04:45:34.259Z,17.43
2018-04-13T04:48:01.812Z,16.65
2018-04-13T04:50:29.396Z,16.08
2018-04-13T04:52:56.953Z,15.61
2018-04-13T04:55:24.546Z,15.38
2018-04-13T04:57:52.438Z,15.57
2018-04-13T05:00:20.505Z,16.43
2018-04-13T05:02:48.068Z,17.22
2018-04-13T05:05:15.673Z,17.79
2018-04-13T05:07:44.075Z,18.19
2018-04-13T05:10:12.648Z,18.46
2018-04-13T05:12:40.228Z,18.68
2018-04-13T05:15:07.962Z,18.82
2018-04-13T05:17:35.541Z,19.06
2018-04-13T05:20:03.081Z,19.51
2018-04-13T05:22:30.684Z,19.63
2018-04-13T05:24:58.302Z,19.97
2018-04-13T05:27:26.382Z,20.34
2018-04-13T05:29:54.451Z,20.71
2018-04-13T05:32:22.566Z,21.03
2018-04-13T05:34:51.222Z,21.42
2018-04-13T05:37:18.765Z,21.74
2018-04-13T05:39:46.831Z,22.11
2018-04-13T05:42:14.364Z,22.44
2018-04-13T05:44:42.260Z,22.76
2018-04-13T05:47:11.430Z,23.38
2018-04-13T05:49:39.022Z,23.21
2018-04-13T05:52:06.780Z,22.59
2018-04-13T05:54:34.336Z,22.62
2018-04-13T05:57:02.006Z,22.99
2018-04-13T05:59:29.743Z,23.30
2018-04-13T06:01:57.351Z,23.07
2018-04-13T06:04:24.889Z,22.60
2018-04-13T06:06:53.301Z,22.37
2018-04-13T06:09:22.565Z,21.38
2018-04-13T06:11:51.086Z,20.97
2018-04-13T06:14:18.633Z,21.57
2018-04-13T06:16:46.261Z,21.18
2018-04-13T06:19:13.810Z,21.14
2018-04-13T06:21:41.416Z,21.40
2018-04-13T06:24:08.954Z,22.38
2018-04-13T06:26:36.510Z,22.14
2018-04-13T06:29:04.104Z,22.76
2018-04-13T06:31:31.648Z,23.13
2018-04-13T06:33:59.403Z,23.48
2018-04-13T06:36:26.980Z,23.61
2018-04-13T06:38:54.565Z,22.44
2018-04-13T06:41:22.121Z,21.75
2018-04-13T06:43:50.546Z,22.29
2018-04-13T06:46:18.121Z,22.21
2018-04-13T06:48:45.783Z,22.87
2018-04-13T06:51:13.312Z,23.35
2018-04-13T06:53:40.930Z,23.29
2018-04-13T06:56:08.468Z,22.59
2018-04-13T06:58:36.071Z,22.58
2018-04-13T07:01:03.726Z,22.45
2018-04-13T07:03:31.260Z,22.09
2018-04-13T07:05:58.800Z,22.34
2018-04-13T07:08:26.381Z,22.18
2018-04-13T07:10:53.964Z,21.54
2018-04-13T07:13:21.560Z,21.65
2018-04-13T07:15:49.188Z,20.93
2018-04-13T07:18:16.729Z,21.24
2018-04-13T07:20:45.271Z,21.73
2018-04-13T07:23:12.950Z,22.09
2018-04-13T07:25:40.558Z,22.40
2018-04-13T07:28:08.169Z,22.59
2018-04-13T07:30:35.713Z,22.68
2018-04-13T07:33:03.331Z,22.52
2018-04-13T07:35:30.941Z,22.35
2018-04-13T07:37:58.924Z,22.36
2018-04-13T07:40:26.098Z,22.52
2018-04-13T07:42:54.619Z,22.70
2018-04-13T07:45:22.214Z,22.67
2018-04-13T07:47:49.799Z,22.52
2018-04-13T07:50:17.949Z,22.79
2018-04-13T07:52:46.369Z,22.48
2018-04-13T07:55:13.941Z,22.39
2018-04-13T07:57:41.480Z,22.59
2018-04-13T08:00:09.334Z,22.86
2018-04-13T08:02:36.889Z,23.02
2018-04-13T08:05:04.537Z,23.21
2018-04-13T08:07:32.173Z,23.37
2018-04-13T08:09:59.864Z,23.50
2018-04-13T08:12:27.325Z,23.61
2018-04-13T08:14:54.985Z,23.22
2018-04-13T08:17:22.530Z,23.18
2018-04-13T08:19:50.078Z,23.29
2018-04-13T08:22:17.677Z,23.45
2018-04-13T08:24:45.210Z,23.58
2018-04-13T08:27:12.766Z,23.61
2018-04-13T08:29:40.396Z,23.75
2018-04-13T08:32:08.325Z,23.65
2018-04-13T08:34:36.215Z,23.71
2018-04-13T08:37:03.822Z,23.82
2018-04-13T08:39:31.524Z,23.87
2018-04-13T08:41:59.060Z,23.95
2018-04-13T08:44:26.622Z,23.84
2018-04-13T08:46:54.383Z,23.71
2018-04-13T08:49:22.017Z,23.50
2018-04-13T08:51:49.640Z,23.41
2018-04-13T08:56:44.233Z,23.35
2018-04-13T08:59:11.876Z,23.30
2018-04-13T09:01:39.470Z,23.33
2018-04-13T09:04:09.381Z,23.18
2018-04-13T09:06:36.942Z,23.03
2018-04-13T09:09:04.656Z,22.95
2018-04-13T09:11:32.197Z,23.10
2018-04-13T09:13:59.738Z,23.20
2018-04-13T09:16:27.377Z,23.39
2018-04-13T09:18:54.920Z,23.49
2018-04-13T09:21:22.466Z,23.63
2018-04-13T09:23:50.138Z,23.70
2018-04-13T09:26:17.742Z,23.61
2018-04-13T09:28:45.303Z,23.61
2018-04-13T09:31:12.941Z,23.49
2018-04-13T09:33:41.517Z,23.63
2018-04-13T09:36:09.924Z,23.80
2018-04-13T09:38:37.753Z,23.88
2018-04-13T09:41:05.307Z,23.91
2018-04-13T09:43:32.865Z,23.94
2018-04-13T09:46:01.309Z,23.98
2018-04-13T09:48:30.335Z,23.97
2018-04-13T09:50:57.976Z,23.98
2018-04-13T09:53:25.523Z,24.03
2018-04-13T09:55:53.060Z,24.00
2018-04-13T09:58:20.710Z,23.95
2018-04-13T10:00:48.542Z,24.05
2018-04-13T10:03:20.973Z,24.08
2018-04-13T10:05:48.561Z,24.05
2018-04-13T10:08:16.116Z,24.01
2018-04-13T10:10:43.717Z,24.00
2018-04-13T10:13:11.328Z,23.97
2018-04-13T10:15:38.922Z,23.96
2018-04-13T10:18:06.574Z,23.99
2018-04-13T10:20:34.167Z,24.00
2018-04-13T10:23:01.723Z,23.95
2018-04-13T10:25:29.321Z,24.06
2018-04-13T10:27:56.877Z,24.11
2018-04-13T10:30:24.591Z,24.03
2018-04-13T10:32:52.224Z,23.87
2018-04-13T10:35:19.788Z,23.88
2018-04-13T10:37:47.449Z,23.87
2018-04-13T10:40:15.936Z,23.91
2018-04-13T10:42:43.623Z,23.90
2018-04-13T10:45:12.116Z,23.89
2018-04-13T10:47:39.671Z,23.87
2018-04-13T10:50:07.284Z,23.87
2018-04-13T10:52:34.833Z,23.85
2018-04-13T10:55:02.416Z,23.93
2018-04-13T10:57:30.008Z,24.00
2018-04-13T10:59:57.557Z,23.97
2018-04-13T11:02:25.169Z,23.92
2018-04-13T11:04:52.766Z,23.89
2018-04-13T11:07:20.318Z,23.95
2018-04-13T11:09:47.989Z,23.93
2018-04-13T11:12:15.542Z,23.87
2018-04-13T11:14:43.084Z,23.83
2018-04-13T11:17:10.766Z,23.79
2018-04-13T11:19:39.424Z,23.76
2018-04-13T11:22:07.777Z,23.75
2018-04-13T11:24:35.626Z,23.75
2018-04-13T11:27:03.178Z,23.74
2018-04-13T11:29:30.821Z,23.75
2018-04-13T11:31:58.434Z,23.75
2018-04-13T11:34:26.055Z,23.74
2018-04-13T11:36:53.610Z,23.74
2018-04-13T11:39:21.214Z,23.71
2018-04-13T11:41:48.786Z,23.69
2018-04-13T11:44:16.390Z,23.69
2018-04-13T11:46:43.932Z,23.68
2018-04-13T11:49:11.494Z,23.68
2018-04-13T11:51:39.053Z,23.64
2018-04-13T11:54:06.593Z,23.62
2018-04-13T11:56:35.104Z,23.63
2018-04-13T11:59:02.757Z,23.63
2018-04-13T12:01:30.336Z,23.62
2018-04-13T12:03:57.974Z,23.60
2018-04-13T12:06:25.920Z,23.69
2018-04-13T12:08:53.469Z,23.71
2018-04-13T12:11:21.092Z,23.69
2018-04-13T12:13:48.694Z,23.68
2018-04-13T12:16:16.283Z,23.66
2018-04-13T12:18:43.945Z,23.65
2018-04-13T12:21:12.411Z,23.63
2018-04-13T12:23:40.011Z,23.63
2018-04-13T12:26:07.597Z,23.67
2018-04-13T12:28:35.149Z,23.68
2018-04-13T12:31:02.740Z,23.66
2018-04-13T12:33:30.294Z,23.64
2018-04-13T12:35:58.047Z,23.69
2018-04-13T12:38:25.771Z,23.68
2018-04-13T12:40:53.330Z,23.65
2018-04-13T12:43:20.982Z,23.64
2018-04-13T12:45:49.362Z,23.64
2018-04-13T12:48:17.756Z,23.63
2018-04-13T12:50:46.639Z,23.61
2018-04-13T12:53:14.413Z,23.63
2018-04-13T12:55:42.281Z,23.63
2018-04-13T12:58:10.888Z,23.61
2018-04-13T13:00:39.665Z,23.74
2018-04-13T13:03:08.119Z,23.73
2018-04-13T13:05:35.672Z,23.76
2018-04-13T13:08:03.257Z,23.76
2018-04-13T13:10:30.944Z,23.72
2018-04-13T13:12:58.614Z,23.76
2018-04-13T13:15:27.140Z,23.79
2018-04-13T13:17:54.801Z,23.78
2018-04-13T13:20:22.931Z,23.74
2018-04-13T13:22:50.489Z,23.73
2018-04-13T13:25:18.089Z,23.71
2018-04-13T13:27:46.673Z,23.70
2018-04-13T13:30:18.058Z,23.68
2018-04-13T13:32:45.692Z,23.68
2018-04-13T13:35:13.435Z,23.68
2018-04-13T13:37:41.870Z,23.69
2018-04-13T13:40:09.859Z,23.69
2018-04-13T13:42:38.337Z,23.69
2018-04-13T13:45:06.430Z,23.69
2018-04-13T13:47:34.544Z,23.68
2018-04-13T13:50:04.915Z,23.67
2018-04-13T13:52:32.606Z,23.79
2018-04-13T13:55:01.205Z,23.80
2018-04-13T13:57:28.874Z,23.76
2018-04-13T13:59:56.567Z,23.74
2018-04-13T14:02:24.659Z,23.72
2018-04-13T14:04:52.323Z,23.71
2018-04-13T14:07:21.258Z,23.71
2018-04-13T14:09:49.824Z,23.71
2018-04-13T14:12:17.951Z,23.70
2018-04-13T14:14:45.732Z,23.69
2018-04-13T14:17:13.473Z,23.70
2018-04-13T14:19:41.411Z,23.69
2018-04-13T14:22:09.215Z,23.69
2018-04-13T14:24:37.020Z,23.69
2018-04-13T14:27:04.859Z,23.67
2018-04-13T14:29:33.851Z,23.67
2018-04-13T14:32:01.670Z,23.67
2018-04-13T14:34:29.400Z,23.68
2018-04-13T14:36:57.232Z,23.67
2018-04-13T14:39:24.869Z,23.67
2018-04-13T14:41:52.629Z,23.66
2018-04-13T14:44:20.504Z,23.66
2018-04-13T14:46:48.415Z,23.66
2018-04-13T14:49:16.385Z,23.66
2018-04-13T14:51:44.858Z,23.66
2018-04-13T14:54:13.292Z,23.65
2018-04-13T14:56:41.891Z,23.64
2018-04-13T14:59:10.378Z,23.64
2018-04-13T15:01:38.379Z,23.63
2018-04-13T15:04:06.264Z,23.63
2018-04-13T15:06:34.148Z,23.62
2018-04-13T15:09:02.848Z,23.61
2018-04-13T15:11:30.722Z,23.60
2018-04-13T15:13:58.534Z,23.59
2018-04-13T15:16:26.549Z,23.57
2018-04-13T15:18:55.323Z,23.56
2018-04-13T15:21:23.883Z,23.55
2018-04-13T15:23:53.437Z,23.54
2018-04-13T15:26:20.978Z,23.52
2018-04-13T15:28:48.957Z,23.51
2018-04-13T15:31:16.724Z,23.50
2018-04-13T15:33:44.992Z,23.50
2018-04-13T15:36:12.538Z,23.50
2018-04-13T15:38:41.461Z,23.50
2018-04-13T15:41:09.574Z,23.50
2018-04-13T15:43:37.162Z,23.50
2018-04-13T15:46:05.095Z,23.49
2018-04-13T15:48:32.882Z,23.49
2018-04-13T15:51:01.387Z,23.47
2018-04-13T15:53:29.033Z,23.46
2018-04-13T15:55:57.025Z,23.46
2018-04-13T15:58:24.630Z,23.45
2018-04-13T16:00:52.857Z,23.43
2018-04-13T16:03:21.193Z,23.41
2018-04-13T16:05:49.366Z,23.40
2018-04-13T16:08:17.386Z,23.39
2018-04-13T16:10:45.332Z,23.38
2018-04-13T16:13:13.622Z,23.36
2018-04-13T16:15:41.184Z,23.34
2018-04-13T16:18:09.253Z,23.32
2018-04-13T16:20:36.862Z,23.29
2018-04-13T16:23:04.884Z,23.27
2018-04-13T16:25:32.498Z,23.26
2018-04-13T16:28:00.042Z,23.25
2018-04-13T16:30:28.796Z,23.24
2018-04-13T16:32:56.554Z,23.22
2018-04-13T16:35:24.393Z,23.19
2018-04-13T16:37:52.399Z,23.16
2018-04-13T16:40:19.942Z,23.13
2018-04-13T16:42:48.382Z,23.10
2018-04-13T16:45:17.107Z,23.10
2018-04-13T16:47:45.046Z,23.06
2018-04-13T16:50:13.042Z,23.03
2018-04-13T16:52:40.633Z,22.99
2018-04-13T16:55:08.556Z,22.88
2018-04-13T16:57:36.355Z,22.84
2018-04-13T17:00:04.051Z,22.77
2018-04-13T17:02:31.672Z,22.72
2018-04-13T17:04:59.431Z,22.70
2018-04-13T17:07:26.982Z,22.70
2018-04-13T17:09:55.168Z,22.69
2018-04-13T17:12:23.748Z,22.66
2018-04-13T17:14:51.351Z,22.66
2018-04-13T17:17:18.956Z,22.62
2018-04-13T17:19:46.831Z,22.54
2018-04-13T17:22:15.558Z,22.44
2018-04-13T17:24:43.093Z,22.35
2018-04-13T17:27:11.063Z,22.31
2018-04-13T17:29:38.662Z,22.28
2018-04-13T17:32:06.218Z,22.31
2018-04-13T17:34:33.812Z,22.28
2018-04-13T17:37:03.837Z,22.29
2018-04-13T17:39:32.063Z,22.28
2018-04-13T17:42:00.106Z,22.27
2018-04-13T17:44:27.653Z,22.22
2018-04-13T17:46:55.197Z,22.21
2018-04-13T17:49:23.633Z,22.20
2018-04-13T17:51:51.346Z,22.17
2018-04-13T17:54:19.225Z,22.10
2018-04-13T17:56:47.690Z,22.11
2018-04-13T17:59:15.610Z,22.07
2018-04-13T18:01:43.159Z,21.89
2018-04-13T18:04:10.968Z,21.96
2018-04-13T18:06:39.459Z,21.97
2018-04-13T18:09:08.159Z,21.73
2018-04-13T18:11:35.698Z,21.60
2018-04-13T18:14:03.534Z,21.43
2018-04-13T18:16:31.495Z,21.29
2018-04-13T18:18:59.928Z,21.31
2018-04-13T18:21:29.557Z,21.42
2018-04-13T18:23:57.978Z,21.43
2018-04-13T18:26:25.565Z,21.48
2018-04-13T18:28:53.658Z,21.45
2018-04-13T18:31:21.254Z,21.28
2018-04-13T18:33:50.081Z,21.30
2018-04-13T18:36:17.985Z,21.28
2018-04-13T18:38:45.618Z,20.99
2018-04-13T18:41:14.453Z,20.88
2018-04-13T18:43:43.066Z,20.87
2018-04-13T18:46:11.231Z,20.93
2018-04-13T18:48:40.867Z,20.94
2018-04-13T18:51:11.947Z,20.55
2018-04-13T18:53:39.535Z,20.72
2018-04-13T18:56:07.093Z,20.82
2018-04-13T18:58:34.969Z,20.95
2018-04-13T19:01:03.619Z,21.05
2018-04-13T19:03:32.724Z,21.14
2018-04-13T19:06:00.369Z,21.20
2018-04-13T19:08:30.898Z,21.21
2018-04-13T19:10:58.446Z,21.00
2018-04-13T19:13:26.140Z,20.98
2018-04-13T19:15:56.546Z,20.86
2018-04-13T19:18:24.649Z,20.79
2018-04-13T19:20:53.125Z,20.88
2018-04-13T19:23:21.487Z,20.84
2018-04-13T19:25:49.344Z,20.86
2018-04-13T19:28:17.322Z,20.96
2018-04-13T19:30:44.867Z,20.97
2018-04-13T19:33:12.461Z,20.95
2018-04-13T19:35:40.885Z,20.94
2018-04-13T19:38:08.474Z,20.99
2018-04-13T19:40:36.136Z,20.95
2018-04-13T19:43:04.548Z,20.83
2018-04-13T19:45:33.022Z,20.85
2018-04-13T19:48:00.972Z,20.90
2018-04-13T19:50:29.122Z,20.91
2018-04-13T19:52:56.675Z,20.78
2018-04-13T19:55:24.287Z,20.52
2018-04-13T19:57:52.057Z,20.45
2018-04-13T20:00:19.962Z,20.53
2018-04-13T20:02:47.532Z,20.63
2018-04-13T20:05:15.369Z,20.44
2018-04-13T20:07:43.358Z,20.36
2018-04-13T20:10:10.914Z,20.41
2018-04-13T20:12:39.562Z,20.42
2018-04-13T20:15:07.102Z,20.48
2018-04-13T20:17:34.650Z,20.60
2018-04-13T20:20:02.375Z,20.58
2018-04-13T20:22:30.557Z,20.67
2018-04-13T20:24:58.694Z,20.65
2018-04-13T20:27:26.435Z,20.71
2018-04-13T20:29:54.045Z,20.75
2018-04-13T20:32:22.121Z,20.82
2018-04-13T20:34:50.649Z,20.84
2018-04-13T20:37:18.198Z,20.87
2018-04-13T20:39:45.918Z,20.78
2018-04-13T20:42:13.514Z,20.03
2018-04-13T20:44:41.062Z,19.56
2018-04-13T20:47:08.605Z,19.28
2018-04-13T20:49:36.330Z,19.14
2018-04-13T20:52:04.402Z,19.06
2018-04-13T20:54:32.021Z,19.28
2018-04-13T20:57:00.180Z,19.53
2018-04-13T20:59:28.170Z,19.59
2018-04-13T21:01:55.724Z,19.48
2018-04-13T21:04:23.534Z,19.51
2018-04-13T21:06:51.468Z,19.34
2018-04-13T21:09:20.008Z,19.26
2018-04-13T21:11:47.825Z,19.32
2018-04-13T21:14:15.373Z,19.18
2018-04-13T21:16:43.431Z,19.27
2018-04-13T21:19:10.984Z,18.90
2018-04-13T21:21:38.940Z,18.50
2018-04-13T21:24:06.531Z,18.47
2018-04-13T21:26:34.121Z,18.42
2018-04-13T21:29:01.718Z,18.59
2018-04-13T21:31:29.702Z,18.92
2018-04-13T21:33:57.314Z,19.12
2018-04-13T21:36:24.859Z,19.31
2018-04-13T21:38:53.000Z,19.45
2018-04-13T21:41:20.901Z,19.34
2018-04-13T21:43:48.975Z,18.87
2018-04-13T21:46:16.923Z,18.82
2018-04-13T21:48:44.514Z,18.98
2018-04-13T21:51:12.573Z,19.06
2018-04-13T21:53:40.367Z,19.14
2018-04-13T21:56:07.938Z,19.11
2018-04-13T21:58:35.562Z,19.27
2018-04-13T22:01:03.323Z,19.43
2018-04-13T22:03:31.060Z,19.60
2018-04-13T22:05:58.602Z,19.67
2018-04-13T22:08:26.614Z,19.67
2018-04-13T22:10:54.169Z,19.42
2018-04-13T22:13:35.497Z,19.39
2018-04-13T22:16:03.312Z,19.37
2018-04-13T22:18:30.905Z,19.48
2018-04-13T22:20:58.489Z,19.44
2018-04-13T22:23:26.038Z,19.47
2018-04-13T22:25:53.871Z,19.52
2018-04-13T22:28:21.425Z,19.58
2018-04-13T22:30:49.157Z,19.61
2018-04-13T22:33:16.746Z,19.67
2018-04-13T22:35:44.815Z,19.51
2018-04-13T22:38:12.706Z,19.30
2018-04-13T22:40:40.523Z,19.32
2018-04-13T22:43:08.066Z,19.05
2018-04-13T22:45:35.667Z,18.80
2018-04-13T22:48:03.458Z,18.74
2018-04-13T22:50:31.435Z,18.40
2018-04-13T22:53:00.198Z,18.61
2018-04-13T22:55:27.791Z,18.67
2018-04-13T22:57:55.401Z,18.80
2018-04-13T23:00:23.209Z,18.48
2018-04-13T23:02:50.754Z,18.50
2018-04-13T23:05:18.299Z,18.63
2018-04-13T23:07:45.897Z,18.86
2018-04-13T23:10:13.736Z,18.46
2018-04-13T23:12:41.317Z,17.95
2018-04-13T23:15:08.858Z,17.87
2018-04-13T23:17:36.638Z,17.93
2018-04-13T23:20:04.210Z,18.06
2018-04-13T23:22:38.001Z,17.81
2018-04-13T23:25:05.541Z,17.87
2018-04-13T23:27:33.507Z,18.18
2018-04-13T23:30:01.221Z,18.47
2018-04-13T23:32:28.766Z,18.69
2018-04-13T23:34:56.404Z,18.81
2018-04-13T23:37:24.509Z,18.93
2018-04-13T23:39:52.120Z,19.01
2018-04-13T23:42:20.532Z,19.09
2018-04-13T23:44:48.078Z,19.01
2018-04-13T23:47:15.949Z,18.89
2018-04-13T23:49:43.489Z,18.87
2018-04-13T23:52:11.035Z,18.47
2018-04-13T23:54:38.621Z,18.27
2018-04-13T23:57:06.218Z,18.13
2018-04-13T23:59:34.303Z,17.63
